createdAt,value
2022-09-23T00:04:51.860Z,99559.47
2022-09-23T00:14:53.604Z,99565.56
2022-09-23T00:24:55.596Z,99553.78
2022-09-23T00:34:57.239Z,99547.94
2022-09-23T00:45:00.173Z,99540.72
2022-09-23T00:55:05.608Z,99534.16
2022-09-23T01:05:08.007Z,99536.19
2022-09-23T01:15:22.041Z,99534.69
2022-09-23T01:25:31.667Z,99539.78
2022-09-23T01:35:39.200Z,99535.75
2022-09-23T01:45:41.072Z,99524.25
2022-09-23T01:55:44.822Z,99524.25
2022-09-23T02:05:52.111Z,99515.88
2022-09-23T02:15:57.517Z,99523.88
2022-09-23T02:26:02.170Z,99520.75
2022-09-23T02:36:20.306Z,99518.00
2022-09-23T02:46:22.398Z,99518.00
2022-09-23T02:56:24.381Z,99514.44
2022-09-23T03:06:26.057Z,99518.63
2022-09-23T03:16:30.467Z,99516.78
2022-09-23T03:26:34.292Z,99516.84
2022-09-23T03:37:02.058Z,99523.63
2022-09-23T03:47:03.866Z,99520.50
2022-09-23T03:57:05.623Z,99512.81
2022-09-23T04:07:07.286Z,99520.94
2022-09-23T04:17:09.195Z,99516.38
2022-09-23T04:27:11.224Z,99512.50
2022-09-23T04:37:12.804Z,99513.13
2022-09-23T04:47:14.579Z,99506.50
2022-09-23T04:57:16.245Z,99525.13
2022-09-23T05:07:19.238Z,99524.22
2022-09-23T05:17:21.263Z,99523.84
2022-09-23T05:27:23.016Z,99528.00
2022-09-23T05:37:25.464Z,99525.75
2022-09-23T05:47:28.355Z,99522.19
2022-09-23T05:57:31.107Z,99513.47
2022-09-23T06:07:32.859Z,99522.16
2022-09-23T06:17:34.458Z,99529.94
2022-09-23T06:27:36.257Z,99525.84
2022-09-23T06:37:37.901Z,99535.31
2022-09-23T06:47:39.934Z,99534.16
2022-09-23T06:57:41.748Z,99537.00
2022-09-23T07:07:44.238Z,99536.22
2022-09-23T07:17:45.957Z,99530.66
2022-09-23T07:28:02.493Z,99521.91
2022-09-23T08:02:15.647Z,99511.56
2022-09-23T14:03:36.882Z,99455.94
2022-09-23T14:14:23.745Z,99442.16
2022-09-23T14:36:13.376Z,99453.41
2022-09-23T15:33:13.981Z,99467.75
2022-09-23T15:43:28.083Z,99465.16
2022-09-23T17:36:40.800Z,99485.22
2022-09-23T17:46:46.238Z,99490.25
2022-09-23T17:57:17.127Z,99491.88
2022-09-23T18:18:54.613Z,99479.22
2022-09-23T18:40:25.026Z,99470.88
2022-09-23T18:50:43.942Z,99480.13
2022-09-23T19:00:51.096Z,99488.31
2022-09-23T19:11:23.138Z,99478.41
2022-09-23T19:32:06.702Z,99472.44
2022-09-23T19:42:08.519Z,99462.72
2022-09-23T19:53:00.490Z,99459.06
2022-09-23T20:03:39.127Z,99465.41
2022-09-23T21:44:44.255Z,99432.63
2022-09-23T21:55:47.204Z,99417.66
2022-09-23T22:06:35.129Z,99414.47
2022-09-23T22:16:59.761Z,99421.88
2022-09-23T22:27:45.497Z,99417.31
2022-09-23T22:38:09.081Z,99424.63
2022-09-23T22:48:22.527Z,99422.38
2022-09-23T22:58:33.178Z,99420.88
2022-09-23T23:08:37.656Z,99409.94
2022-09-23T23:29:27.956Z,99404.63
2022-09-23T23:39:36.765Z,99393.22
2022-09-23T23:49:47.185Z,99392.97
2022-09-23T23:59:54.828Z,99390.06
